createdAt,value
2022-07-29T00:02:25.971Z,17.60
2022-07-29T00:04:52.808Z,17.50
2022-07-29T00:07:19.741Z,17.60
2022-07-29T00:09:51.389Z,17.70
2022-07-29T00:12:25.715Z,17.70
2022-07-29T00:14:53.924Z,17.80
2022-07-29T00:17:20.895Z,17.80
2022-07-29T00:19:47.668Z,17.80
2022-07-29T00:22:14.446Z,17.70
2022-07-29T00:24:41.205Z,17.80
2022-07-29T00:27:09.375Z,20.00
2022-07-29T00:29:36.183Z,17.70
2022-07-29T00:32:03.276Z,17.70
2022-07-29T00:34:48.910Z,17.70
2022-07-29T00:37:15.670Z,19.70
2022-07-29T00:39:42.534Z,17.70
2022-07-29T00:42:10.865Z,17.70
2022-07-29T00:44:38.653Z,17.80
2022-07-29T00:47:05.863Z,17.80
2022-07-29T00:49:33.523Z,17.70
2022-07-29T00:52:02.206Z,18.80
2022-07-29T00:54:30.024Z,17.80
2022-07-29T00:56:58.779Z,17.80
2022-07-29T00:59:34.735Z,17.70
2022-07-29T01:02:02.329Z,17.70
2022-07-29T01:04:30.576Z,17.60
2022-07-29T01:06:57.921Z,17.70
2022-07-29T01:09:34.294Z,17.70
2022-07-29T01:12:11.023Z,17.80
2022-07-29T01:14:40.024Z,17.80
2022-07-29T01:17:12.814Z,17.80
2022-07-29T01:19:53.709Z,19.10
2022-07-29T01:22:29.215Z,17.90
2022-07-29T01:25:13.316Z,17.90
2022-07-29T01:27:48.430Z,17.90
2022-07-29T01:30:16.876Z,17.90
2022-07-29T01:32:50.966Z,17.90
2022-07-29T01:35:21.982Z,17.90
2022-07-29T01:37:55.921Z,17.90
2022-07-29T01:40:30.037Z,17.90
2022-07-29T01:42:59.630Z,17.80
2022-07-29T01:45:32.234Z,17.90
2022-07-29T01:48:03.545Z,17.90
2022-07-29T01:50:34.777Z,17.90
2022-07-29T01:53:03.600Z,17.90
2022-07-29T01:55:35.128Z,17.80
2022-07-29T01:58:05.461Z,17.80
2022-07-29T02:00:35.134Z,17.80
2022-07-29T02:03:06.521Z,17.80
2022-07-29T02:05:35.177Z,17.80
2022-07-29T02:08:03.028Z,17.80
2022-07-29T02:10:32.166Z,17.80
2022-07-29T02:13:00.291Z,17.70
2022-07-29T02:15:30.071Z,17.70
2022-07-29T02:18:00.782Z,17.70
2022-07-29T02:20:29.808Z,17.80
2022-07-29T02:22:59.335Z,17.80
2022-07-29T02:25:36.973Z,17.80
2022-07-29T02:28:06.144Z,17.70
2022-07-29T02:30:33.900Z,17.70
2022-07-29T02:33:03.384Z,17.80
2022-07-29T02:35:34.630Z,17.80
2022-07-29T02:38:21.503Z,18.70
2022-07-29T02:40:49.438Z,17.90
2022-07-29T02:43:18.231Z,17.90
2022-07-29T02:45:48.253Z,17.90
2022-07-29T02:48:27.025Z,17.90
2022-07-29T02:51:02.493Z,17.80
2022-07-29T02:53:34.147Z,17.70
2022-07-29T02:56:07.284Z,17.70
2022-07-29T02:58:38.641Z,17.80
2022-07-29T03:01:12.369Z,17.80
2022-07-29T03:03:42.636Z,17.70
2022-07-29T03:06:37.362Z,17.70
2022-07-29T03:09:00.035Z,17.70
2022-07-29T03:11:40.113Z,17.70
2022-07-29T03:14:14.822Z,17.70
2022-07-29T03:16:42.610Z,17.60
2022-07-29T03:19:10.946Z,17.50
2022-07-29T03:21:37.745Z,17.40
2022-07-29T03:24:09.893Z,17.30
2022-07-29T03:26:37.590Z,17.30
2022-07-29T03:29:04.352Z,17.40
2022-07-29T03:31:31.174Z,17.40
2022-07-29T03:33:58.524Z,17.50
2022-07-29T03:36:26.686Z,17.50
2022-07-29T03:38:53.773Z,17.60
2022-07-29T03:41:23.372Z,17.50
2022-07-29T03:43:52.429Z,17.50
2022-07-29T03:46:21.500Z,17.50
2022-07-29T03:48:51.631Z,17.50
2022-07-29T03:51:18.661Z,17.50
2022-07-29T03:54:06.185Z,17.40
2022-07-29T03:56:40.727Z,17.30
2022-07-29T03:59:08.566Z,17.30
2022-07-29T04:01:36.424Z,17.20
2022-07-29T04:04:04.750Z,17.20
2022-07-29T04:06:39.673Z,17.20
2022-07-29T04:09:09.869Z,17.20
2022-07-29T04:12:02.639Z,17.20
2022-07-29T04:14:24.612Z,17.20
2022-07-29T04:16:51.369Z,17.20
2022-07-29T04:19:18.165Z,17.30
2022-07-29T04:21:46.090Z,17.40
2022-07-29T04:24:14.485Z,17.50
2022-07-29T04:26:41.562Z,17.50
2022-07-29T04:29:08.410Z,17.50
2022-07-29T04:31:35.631Z,17.40
2022-07-29T04:34:02.434Z,17.40
2022-07-29T04:36:30.111Z,17.40
2022-07-29T04:38:57.011Z,17.40
2022-07-29T04:41:32.634Z,17.40
2022-07-29T04:44:05.791Z,17.30
2022-07-29T04:46:34.354Z,17.30
2022-07-29T04:49:01.409Z,17.40
2022-07-29T04:51:28.678Z,17.50
2022-07-29T04:53:55.435Z,17.50
2022-07-29T04:56:22.239Z,19.10
2022-07-29T04:58:50.326Z,17.50
2022-07-29T05:01:17.352Z,17.50
2022-07-29T05:03:44.271Z,17.60
2022-07-29T05:06:11.145Z,17.50
2022-07-29T05:08:38.497Z,17.50
2022-07-29T05:11:11.984Z,17.50
2022-07-29T05:13:45.986Z,17.60
2022-07-29T05:16:15.299Z,17.60
2022-07-29T05:18:42.170Z,17.60
2022-07-29T05:21:09.025Z,17.60
2022-07-29T05:23:35.871Z,17.50
2022-07-29T05:26:02.680Z,17.50
2022-07-29T05:28:29.670Z,17.50
2022-07-29T05:30:57.110Z,17.60
2022-07-29T05:33:35.296Z,17.60
2022-07-29T05:36:06.308Z,17.60
2022-07-29T05:41:00.754Z,17.70
2022-07-29T05:43:27.762Z,17.80
2022-07-29T05:45:54.612Z,17.80
2022-07-29T05:48:21.742Z,17.90
2022-07-29T05:50:49.928Z,17.90
2022-07-29T05:53:19.723Z,18.00
2022-07-29T05:55:47.356Z,18.10
2022-07-29T05:58:14.147Z,18.10
2022-07-29T06:00:40.947Z,18.20
2022-07-29T06:03:07.815Z,18.30
2022-07-29T06:05:34.682Z,18.40
2022-07-29T06:08:02.919Z,18.40
2022-07-29T06:10:29.728Z,18.40
2022-07-29T06:12:56.515Z,18.50
2022-07-29T06:15:23.299Z,18.60
2022-07-29T06:17:59.072Z,18.70
2022-07-29T06:20:30.604Z,18.80
2022-07-29T06:22:57.736Z,19.00
2022-07-29T06:25:25.951Z,19.10
2022-07-29T06:27:53.198Z,19.30
2022-07-29T06:30:20.054Z,19.30
2022-07-29T06:32:47.166Z,19.30
2022-07-29T06:38:00.684Z,19.40
2022-07-29T06:40:47.592Z,19.60
2022-07-29T06:43:14.646Z,19.70
2022-07-29T06:45:42.433Z,19.90
2022-07-29T06:48:09.762Z,19.80
2022-07-29T06:50:36.723Z,19.90
2022-07-29T06:53:03.847Z,19.90
2022-07-29T06:55:32.273Z,20.00
2022-07-29T06:57:59.113Z,19.90
2022-07-29T07:00:26.232Z,20.10
2022-07-29T07:02:53.023Z,20.30
2022-07-29T07:05:19.797Z,20.20
2022-07-29T07:07:46.619Z,20.20
2022-07-29T07:10:13.430Z,20.40
2022-07-29T07:12:41.560Z,20.60
2022-07-29T07:15:08.938Z,20.60
2022-07-29T07:17:35.726Z,20.60
2022-07-29T07:20:02.598Z,20.90
2022-07-29T07:22:29.346Z,20.70
2022-07-29T07:24:56.098Z,21.40
2022-07-29T07:27:22.957Z,20.60
2022-07-29T07:29:51.054Z,20.40
2022-07-29T07:32:17.868Z,20.10
2022-07-29T07:34:44.708Z,19.80
2022-07-29T07:37:11.587Z,19.80
2022-07-29T07:39:38.453Z,19.80
2022-07-29T07:42:24.394Z,19.50
2022-07-29T07:45:13.109Z,19.50
2022-07-29T07:47:40.950Z,19.70
2022-07-29T07:50:11.722Z,20.00
2022-07-29T07:52:49.654Z,20.00
2022-07-29T07:55:17.067Z,20.00
2022-07-29T07:57:44.082Z,20.00
2022-07-29T08:00:14.236Z,20.20
2022-07-29T08:02:41.262Z,20.20
2022-07-29T08:05:12.699Z,20.50
2022-07-29T08:07:39.975Z,20.30
2022-07-29T08:10:07.656Z,20.50
2022-07-29T08:12:34.410Z,20.70
2022-07-29T08:15:01.265Z,20.80
2022-07-29T08:17:29.444Z,20.60
2022-07-29T08:19:56.319Z,20.70
2022-07-29T08:22:23.146Z,20.90
2022-07-29T08:24:57.054Z,20.90
2022-07-29T08:30:11.566Z,20.60
2022-07-29T08:32:55.987Z,20.50
2022-07-29T08:35:29.974Z,20.60
2022-07-29T08:37:59.531Z,21.60
2022-07-29T08:40:32.412Z,21.20
2022-07-29T08:43:00.553Z,20.90
2022-07-29T08:45:29.007Z,21.20
2022-07-29T08:49:37.027Z,21.20
2022-07-29T08:56:27.955Z,21.60
2022-07-29T08:58:55.915Z,22.00
2022-07-29T09:01:35.728Z,21.80
2022-07-29T09:04:06.848Z,21.80
2022-07-29T09:06:57.404Z,21.90
2022-07-29T09:09:24.273Z,22.90
2022-07-29T09:11:54.325Z,23.70
2022-07-29T09:14:21.410Z,22.30
2022-07-29T09:16:53.866Z,22.00
2022-07-29T09:19:23.741Z,22.20
2022-07-29T09:21:59.865Z,22.10
2022-07-29T09:24:41.696Z,22.10
2022-07-29T09:27:46.604Z,22.40
2022-07-29T09:33:00.972Z,22.40
2022-07-29T09:35:28.274Z,22.50
2022-07-29T09:37:55.731Z,22.50
2022-07-29T09:40:24.375Z,22.50
2022-07-29T09:42:54.153Z,22.50
2022-07-29T09:45:29.328Z,22.60
2022-07-29T09:47:58.353Z,22.70
2022-07-29T09:50:36.294Z,22.80
2022-07-29T09:53:03.134Z,22.90
2022-07-29T09:55:29.974Z,22.90
2022-07-29T09:58:16.279Z,23.00
2022-07-29T10:00:44.537Z,22.90
2022-07-29T10:03:11.866Z,22.60
2022-07-29T10:05:41.330Z,22.70
2022-07-29T10:08:09.066Z,22.80
2022-07-29T10:10:37.932Z,23.70
2022-07-29T10:13:12.097Z,23.20
2022-07-29T10:15:45.110Z,23.60
2022-07-29T10:18:13.036Z,23.90
2022-07-29T10:20:41.149Z,24.10
2022-07-29T10:23:08.067Z,24.20
2022-07-29T10:25:34.868Z,24.20
2022-07-29T10:28:01.648Z,24.20
2022-07-29T10:30:29.918Z,24.10
2022-07-29T10:33:15.669Z,24.30
2022-07-29T10:35:55.451Z,24.50
2022-07-29T10:38:45.688Z,24.70
2022-07-29T10:41:32.056Z,24.60
2022-07-29T10:44:05.010Z,24.70
2022-07-29T10:46:37.928Z,24.60
2022-07-29T10:49:08.180Z,24.40
2022-07-29T10:51:53.391Z,24.50
2022-07-29T10:54:42.494Z,24.70
2022-07-29T10:57:15.906Z,25.00
2022-07-29T10:59:44.117Z,25.10
2022-07-29T11:02:52.229Z,25.20
2022-07-29T11:05:20.493Z,25.40
2022-07-29T11:08:26.462Z,25.50
2022-07-29T11:11:37.636Z,25.80
2022-07-29T11:14:04.497Z,25.80
2022-07-29T11:17:06.465Z,25.90
2022-07-29T11:19:35.885Z,25.90
2022-07-29T11:24:33.201Z,26.00
2022-07-29T11:27:13.294Z,26.00
2022-07-29T11:29:50.270Z,25.90
2022-07-29T11:32:22.804Z,26.10
2022-07-29T11:35:17.147Z,26.10
2022-07-29T11:37:52.323Z,25.90
2022-07-29T11:40:22.895Z,26.00
2022-07-29T11:42:52.114Z,28.50
2022-07-29T11:45:43.524Z,26.40
2022-07-29T11:48:29.467Z,26.50
2022-07-29T11:50:56.802Z,26.60
2022-07-29T11:53:25.601Z,26.30
2022-07-29T11:55:56.393Z,26.30
2022-07-29T11:58:26.005Z,26.20
2022-07-29T12:00:55.483Z,26.20
2022-07-29T12:03:33.581Z,26.20
2022-07-29T12:06:12.210Z,26.20
2022-07-29T12:08:41.933Z,26.30
2022-07-29T12:11:16.717Z,26.30
2022-07-29T12:13:43.541Z,26.30
2022-07-29T12:16:14.738Z,26.30
2022-07-29T12:18:41.752Z,26.20
2022-07-29T12:21:12.546Z,26.50
2022-07-29T12:23:39.568Z,26.50
2022-07-29T12:26:07.569Z,26.60
2022-07-29T12:28:39.190Z,26.70
2022-07-29T12:31:06.146Z,26.70
2022-07-29T12:33:35.942Z,26.50
2022-07-29T12:36:10.421Z,26.50
2022-07-29T12:38:42.029Z,26.40
2022-07-29T12:41:08.987Z,26.00
2022-07-29T12:43:35.915Z,26.10
2022-07-29T12:46:13.958Z,26.10
2022-07-29T12:48:43.342Z,26.10
2022-07-29T12:51:11.017Z,26.00
2022-07-29T12:53:38.129Z,25.50
2022-07-29T12:56:40.669Z,26.60
2022-07-29T12:59:13.830Z,25.40
2022-07-29T13:01:40.644Z,25.40
2022-07-29T13:04:07.414Z,25.50
2022-07-29T13:06:39.408Z,25.60
2022-07-29T13:09:11.561Z,25.50
2022-07-29T13:11:46.530Z,25.70
2022-07-29T13:14:31.665Z,26.40
2022-07-29T13:17:04.260Z,26.00
2022-07-29T13:19:39.165Z,27.80
2022-07-29T13:22:06.123Z,26.10
2022-07-29T13:24:33.002Z,26.30
2022-07-29T13:27:01.395Z,26.10
2022-07-29T13:29:32.334Z,26.40
2022-07-29T13:31:59.634Z,26.60
2022-07-29T13:34:26.772Z,26.60
2022-07-29T13:36:53.943Z,26.60
2022-07-29T13:39:20.743Z,26.60
2022-07-29T13:41:47.518Z,26.60
2022-07-29T13:44:17.339Z,26.80
2022-07-29T13:49:12.219Z,26.80
2022-07-29T13:51:39.073Z,26.90
2022-07-29T13:54:05.915Z,26.90
2022-07-29T13:56:32.842Z,26.60
2022-07-29T13:58:59.802Z,26.40
2022-07-29T14:01:28.539Z,26.30
2022-07-29T14:03:55.371Z,26.50
2022-07-29T14:06:22.798Z,27.70
2022-07-29T14:08:49.692Z,26.80
2022-07-29T14:11:16.534Z,26.80
2022-07-29T14:13:43.328Z,26.70
2022-07-29T14:16:10.334Z,26.60
2022-07-29T14:18:38.588Z,26.70
2022-07-29T14:21:05.508Z,26.70
2022-07-29T14:23:32.345Z,26.80
2022-07-29T14:25:59.237Z,26.70
2022-07-29T14:28:26.114Z,26.60
2022-07-29T14:30:52.892Z,26.60
2022-07-29T14:33:19.644Z,26.40
2022-07-29T14:35:47.884Z,26.50
2022-07-29T14:38:14.671Z,26.60
2022-07-29T14:40:41.695Z,26.60
2022-07-29T14:43:08.578Z,26.60
2022-07-29T14:45:35.550Z,26.50
2022-07-29T14:48:02.345Z,26.10
2022-07-29T14:50:31.584Z,26.00
2022-07-29T14:53:00.499Z,25.90
2022-07-29T14:55:27.579Z,25.90
2022-07-29T14:58:02.042Z,25.80
2022-07-29T15:00:34.856Z,25.90
2022-07-29T15:03:02.951Z,25.80
2022-07-29T15:05:30.668Z,25.80
2022-07-29T15:07:57.478Z,25.70
2022-07-29T15:10:27.856Z,25.70
2022-07-29T15:12:54.779Z,25.20
2022-07-29T15:15:21.991Z,25.30
2022-07-29T15:17:48.960Z,25.30
2022-07-29T15:20:15.710Z,25.30
2022-07-29T15:22:44.328Z,25.50
2022-07-29T15:25:11.807Z,25.30
2022-07-29T15:27:39.934Z,25.40
2022-07-29T15:32:40.251Z,25.10
2022-07-29T15:35:07.748Z,25.10
2022-07-29T15:37:48.927Z,25.10
2022-07-29T15:40:16.491Z,27.00
2022-07-29T15:42:44.662Z,25.00
2022-07-29T15:45:11.648Z,24.90
2022-07-29T15:47:38.490Z,24.90
2022-07-29T15:50:07.388Z,24.80
2022-07-29T15:52:34.401Z,24.80
2022-07-29T15:55:01.187Z,26.60
2022-07-29T15:57:27.981Z,24.60
2022-07-29T15:59:56.149Z,24.50
2022-07-29T16:02:23.061Z,24.90
2022-07-29T16:04:49.972Z,24.50
2022-07-29T16:07:17.177Z,24.20
2022-07-29T16:09:47.153Z,24.70
2022-07-29T16:12:17.868Z,24.20
2022-07-29T16:14:45.123Z,24.10
2022-07-29T16:17:14.718Z,23.90
2022-07-29T16:19:42.663Z,23.90
2022-07-29T16:22:09.494Z,23.90
2022-07-29T16:24:36.341Z,23.90
2022-07-29T16:27:03.268Z,23.90
2022-07-29T16:29:30.124Z,23.90
2022-07-29T16:31:57.089Z,23.90
2022-07-29T16:34:25.303Z,24.10
2022-07-29T16:36:52.124Z,23.80
2022-07-29T16:39:18.955Z,23.60
2022-07-29T16:41:45.759Z,23.50
2022-07-29T16:44:12.759Z,24.20
2022-07-29T16:46:41.506Z,23.20
2022-07-29T16:49:08.508Z,23.10
2022-07-29T16:51:36.759Z,22.80
2022-07-29T16:54:03.781Z,22.60
2022-07-29T16:56:30.564Z,22.50
2022-07-29T16:58:57.754Z,22.40
2022-07-29T17:01:24.643Z,22.30
2022-07-29T17:04:06.604Z,22.80
2022-07-29T17:06:35.060Z,23.90
2022-07-29T17:09:04.680Z,21.80
2022-07-29T17:11:53.222Z,21.80
2022-07-29T17:14:18.536Z,21.70
2022-07-29T17:17:02.546Z,21.30
2022-07-29T17:19:31.566Z,21.80
2022-07-29T17:22:06.792Z,21.10
2022-07-29T17:24:38.978Z,21.20
2022-07-29T17:27:07.261Z,21.20
2022-07-29T17:29:35.198Z,21.20
2022-07-29T17:32:02.060Z,21.30
2022-07-29T17:34:28.871Z,21.40
2022-07-29T17:36:56.514Z,21.30
2022-07-29T17:39:23.652Z,21.20
2022-07-29T17:41:51.925Z,21.20
2022-07-29T17:44:18.709Z,21.10
2022-07-29T17:46:45.700Z,21.10
2022-07-29T17:49:12.581Z,21.00
2022-07-29T17:51:39.749Z,21.10
2022-07-29T17:54:06.562Z,21.10
2022-07-29T17:56:33.814Z,22.00
2022-07-29T17:59:06.416Z,21.20
2022-07-29T18:01:33.382Z,21.10
2022-07-29T18:04:00.471Z,20.90
2022-07-29T18:06:27.405Z,20.80
2022-07-29T18:08:55.215Z,20.50
2022-07-29T18:11:22.485Z,20.20
2022-07-29T18:13:49.541Z,20.00
2022-07-29T18:16:17.922Z,20.80
2022-07-29T18:18:45.510Z,19.90
2022-07-29T18:21:12.730Z,22.20
2022-07-29T18:23:39.906Z,19.70
2022-07-29T18:26:06.791Z,19.80
2022-07-29T18:28:33.741Z,19.80
2022-07-29T18:31:00.662Z,19.90
2022-07-29T18:33:28.945Z,20.00
2022-07-29T18:36:10.555Z,20.10
2022-07-29T18:38:38.953Z,19.90
2022-07-29T18:41:05.780Z,19.40
2022-07-29T18:43:32.726Z,19.10
2022-07-29T18:45:59.565Z,19.00
2022-07-29T18:48:27.816Z,18.60
2022-07-29T18:50:54.664Z,20.00
2022-07-29T18:53:21.511Z,18.20
2022-07-29T18:55:48.334Z,18.20
2022-07-29T18:58:15.137Z,17.90
2022-07-29T19:00:41.963Z,17.60
2022-07-29T19:03:09.543Z,17.40
2022-07-29T19:05:37.906Z,17.40
2022-07-29T19:08:05.203Z,17.50
2022-07-29T19:10:32.035Z,17.70
2022-07-29T19:12:58.872Z,17.80
2022-07-29T19:15:25.991Z,17.90
2022-07-29T19:17:54.758Z,18.00
2022-07-29T19:20:24.594Z,18.10
2022-07-29T19:22:52.729Z,18.20
2022-07-29T19:25:19.612Z,18.00
2022-07-29T19:27:46.575Z,17.70
2022-07-29T19:30:13.595Z,17.50
2022-07-29T19:32:40.441Z,17.50
2022-07-29T19:35:26.649Z,17.80
2022-07-29T19:37:56.551Z,17.50
2022-07-29T19:40:23.549Z,17.70
2022-07-29T19:42:51.637Z,17.90
2022-07-29T19:45:19.320Z,19.60
2022-07-29T19:47:46.335Z,18.00
2022-07-29T19:50:13.430Z,17.90
2022-07-29T19:52:40.326Z,17.70
2022-07-29T19:55:09.733Z,17.70
2022-07-29T19:57:41.073Z,17.80
2022-07-29T20:00:11.317Z,20.20
2022-07-29T20:02:39.217Z,18.00
2022-07-29T20:05:07.439Z,18.00
2022-07-29T20:07:34.931Z,17.90
2022-07-29T20:10:01.806Z,17.80
2022-07-29T20:12:29.949Z,17.80
2022-07-29T20:14:56.852Z,17.70
2022-07-29T20:17:23.756Z,17.90
2022-07-29T20:19:51.351Z,18.90
2022-07-29T20:22:21.019Z,17.90
2022-07-29T20:24:49.780Z,17.90
2022-07-29T20:27:16.739Z,17.90
2022-07-29T20:29:44.945Z,17.90
2022-07-29T20:32:12.463Z,19.00
2022-07-29T20:34:41.220Z,17.60
2022-07-29T20:37:11.249Z,17.60
2022-07-29T20:39:38.436Z,17.70
2022-07-29T20:42:05.895Z,17.70
2022-07-29T20:44:32.789Z,17.70
2022-07-29T20:47:03.063Z,17.60
2022-07-29T20:49:30.138Z,17.60
2022-07-29T20:51:56.969Z,17.60
2022-07-29T20:54:23.808Z,18.80
2022-07-29T20:56:50.920Z,17.70
2022-07-29T20:59:17.866Z,17.60
2022-07-29T21:01:44.909Z,17.60
2022-07-29T21:04:13.155Z,19.20
2022-07-29T21:06:39.993Z,17.50
2022-07-29T21:09:06.818Z,17.50
2022-07-29T21:11:43.306Z,17.50
2022-07-29T21:14:22.277Z,17.30
2022-07-29T21:16:50.163Z,17.30
2022-07-29T21:19:18.361Z,17.30
2022-07-29T21:21:45.161Z,17.30
2022-07-29T21:24:12.396Z,17.50
2022-07-29T21:26:39.307Z,17.50
2022-07-29T21:29:06.163Z,17.60
2022-07-29T21:36:50.834Z,17.50
2022-07-29T21:39:17.616Z,17.30
2022-07-29T21:41:44.352Z,17.30
2022-07-29T21:44:11.091Z,17.20
2022-07-29T21:46:37.880Z,17.20
2022-07-29T21:49:04.668Z,17.20
2022-07-29T21:51:31.491Z,17.00
2022-07-29T21:53:59.594Z,17.10
2022-07-29T21:56:27.703Z,17.10
2022-07-29T21:58:54.682Z,17.00
2022-07-29T22:01:21.483Z,16.90
2022-07-29T22:03:48.534Z,17.00
2022-07-29T22:06:17.872Z,17.20
2022-07-29T22:08:45.580Z,17.20
2022-07-29T22:11:13.822Z,17.10
2022-07-29T22:13:40.608Z,17.10
2022-07-29T22:16:09.516Z,17.00
2022-07-29T22:18:36.263Z,17.00
2022-07-29T22:21:03.137Z,17.10
2022-07-29T22:23:29.883Z,17.20
2022-07-29T22:25:57.161Z,17.30
2022-07-29T22:28:25.224Z,17.50
2022-07-29T22:30:52.066Z,17.40
2022-07-29T22:33:18.858Z,17.30
2022-07-29T22:35:48.720Z,17.40
2022-07-29T22:38:15.932Z,17.50
2022-07-29T22:40:42.805Z,17.50
2022-07-29T22:43:10.650Z,17.50
2022-07-29T22:45:38.807Z,17.50
2022-07-29T22:48:06.306Z,17.50
2022-07-29T22:50:33.827Z,17.70
2022-07-29T22:53:00.578Z,17.70
2022-07-29T22:55:27.420Z,17.60
2022-07-29T22:57:54.179Z,17.30
2022-07-29T23:00:20.989Z,17.20
2022-07-29T23:02:49.111Z,17.20
2022-07-29T23:05:16.099Z,17.30
2022-07-29T23:07:43.031Z,17.30
2022-07-29T23:10:10.168Z,17.20
2022-07-29T23:12:37.068Z,17.20
2022-07-29T23:15:04.509Z,17.30
2022-07-29T23:17:31.401Z,17.20
2022-07-29T23:20:06.509Z,17.30
2022-07-29T23:22:33.291Z,17.20
2022-07-29T23:25:00.075Z,17.30
2022-07-29T23:27:26.841Z,17.30
2022-07-29T23:29:53.726Z,17.30
2022-07-29T23:32:20.873Z,17.20
2022-07-29T23:34:47.677Z,17.20
2022-07-29T23:37:15.761Z,17.20
2022-07-29T23:39:42.521Z,17.10
2022-07-29T23:42:09.746Z,17.20
2022-07-29T23:44:36.506Z,17.20
2022-07-29T23:47:03.714Z,17.20
2022-07-29T23:49:30.816Z,17.10
2022-07-29T23:51:57.703Z,17.10
2022-07-29T23:54:25.766Z,17.00
2022-07-29T23:56:52.533Z,16.90
2022-07-29T23:59:19.349Z,16.90
